Time;durP1;ratioP1;P1;durP2;ratioP2;P2;SDS_P1;SDS_P2;PMS_P1;PMS_P2;Temp;Humidity;BMP_temperature;BMP_pressure;BME280_temperature;BME280_humidity;BME280_pressure;Samples;Min_cycle;Max_cycle;Signal;HPM_P1;HPM_P2
2022/10/24 00:02:01;;;;;;;13.23;5.07;;;;;;;12.33;100.00;100240.72;6290270;22;20004;-87
2022/10/24 00:04:26;;;;;;;9.77;4.50;;;;;;;12.32;100.00;100232.78;6292667;22;20199;-87
2022/10/24 00:06:51;;;;;;;8.20;4.80;;;;;;;12.30;100.00;100229.38;6286848;22;20038;-86
2022/10/24 00:09:17;;;;;;;9.77;4.72;;;;;;;12.24;100.00;100214.63;6280062;22;20083;-86
2022/10/24 00:11:42;;;;;;;10.80;4.25;;;;;;;12.24;100.00;100216.44;6280775;22;19984;-85
2022/10/24 00:14:07;;;;;;;7.05;4.05;;;;;;;12.24;100.00;100214.63;6279274;22;20034;-86
2022/10/24 00:16:34;;;;;;;10.18;4.97;;;;;;;12.21;100.00;100206.84;6275460;22;20010;-85
2022/10/24 00:19:00;;;;;;;8.95;4.28;;;;;;;12.22;100.00;100219.22;6277228;22;19999;-85
2022/10/24 00:21:25;;;;;;;9.65;4.20;;;;;;;12.19;100.00;100222.09;6276509;22;20030;-86
2022/10/24 00:23:50;;;;;;;8.85;4.18;;;;;;;12.17;100.00;100219.53;6275685;22;20082;-85
2022/10/24 00:26:16;;;;;;;10.02;4.47;;;;;;;12.16;100.00;100224.97;6275217;22;20067;-86
2022/10/24 00:28:42;;;;;;;11.20;4.35;;;;;;;12.11;100.00;100222.59;6274687;22;20011;-87
2022/10/24 00:31:12;;;;;;;9.52;4.50;;;;;;;12.11;100.00;100219.09;6273561;22;20436;-85
2022/10/24 00:33:38;;;;;;;7.53;4.32;;;;;;;12.11;100.00;100213.75;6273616;22;20004;-86
2022/10/24 00:36:03;;;;;;;8.30;4.10;;;;;;;12.10;100.00;100217.38;6275368;22;20448;-86
2022/10/24 00:38:29;;;;;;;9.73;4.97;;;;;;;12.11;100.00;100219.94;6275401;22;20007;-86
2022/10/24 00:40:54;;;;;;;8.15;4.45;;;;;;;12.12;100.00;100213.66;6274721;22;20008;-86
2022/10/24 00:43:24;;;;;;;9.70;4.68;;;;;;;12.11;100.00;100224.41;6274430;22;20003;-87
2022/10/24 00:46:00;;;;;;;12.15;4.68;;;;;;;12.03;100.00;100213.41;6275685;22;20392;-87
2022/10/24 00:48:27;;;;;;;8.57;4.70;;;;;;;12.03;100.00;100211.59;6274837;22;20086;-86
2022/10/24 00:50:59;;;;;;;10.23;4.80;;;;;;;12.02;100.00;100212.56;6275261;22;20030;-86
2022/10/24 00:53:26;;;;;;;10.77;5.05;;;;;;;12.01;100.00;100210.84;6274258;22;20464;-85
2022/10/24 00:55:55;;;;;;;9.75;5.05;;;;;;;12.00;100.00;100213.59;6274088;22;20061;-85
2022/10/24 00:58:24;;;;;;;14.13;5.18;;;;;;;11.92;100.00;100201.66;6271549;22;20422;-87
2022/10/24 01:00:50;;;;;;;9.63;4.68;;;;;;;11.96;100.00;100202.31;6270570;22;20391;-87
2022/10/24 01:03:15;;;;;;;9.68;4.68;;;;;;;11.98;100.00;100207.53;6273643;22;20039;-86
2022/10/24 01:06:05;;;;;;;9.43;4.32;;;;;;;11.98;100.00;100207.53;6275066;22;20061;-86
2022/10/24 01:08:45;;;;;;;9.45;4.72;;;;;;;11.98;100.00;100204.88;6272041;22;19999;-86
2022/10/24 01:11:20;;;;;;;8.77;4.50;;;;;;;12.05;100.00;100208.84;6270995;22;20004;-85
2022/10/24 01:13:57;;;;;;;9.52;4.65;;;;;;;12.10;100.00;100199.56;6272845;22;20010;-86
2022/10/24 01:16:42;;;;;;;7.18;4.30;;;;;;;12.08;100.00;100203.28;6272467;22;20011;-86
2022/10/24 01:19:41;;;;;;;7.13;4.07;;;;;;;11.99;100.00;100202.09;6272292;22;20010;-85
2022/10/24 01:22:16;;;;;;;8.00;4.00;;;;;;;12.11;100.00;100200.41;6274411;22;20417;-86
2022/10/24 01:24:53;;;;;;;8.18;3.60;;;;;;;12.13;100.00;100182.50;6273447;22;20003;-86
2022/10/24 01:27:51;;;;;;;8.57;4.20;;;;;;;12.05;100.00;100200.84;6270877;22;20010;-85
2022/10/24 01:30:18;;;;;;;7.82;3.58;;;;;;;12.18;100.00;100183.88;6271855;22;20003;-86
2022/10/24 01:32:55;;;;;;;5.93;3.50;;;;;;;12.21;100.00;100177.50;6268956;22;20087;-85
2022/10/24 01:35:23;;;;;;;7.35;3.58;;;;;;;12.27;100.00;100173.56;6272796;22;20046;-86
2022/10/24 01:37:51;;;;;;;6.13;3.33;;;;;;;12.42;100.00;100186.69;6273516;22;20436;-86
2022/10/24 01:40:25;;;;;;;7.10;3.35;;;;;;;12.48;100.00;100188.09;6272498;22;20061;-85
2022/10/24 01:42:55;;;;;;;6.13;3.15;;;;;;;12.60;100.00;100181.88;6272413;22;20627;-86
2022/10/24 01:45:29;;;;;;;6.43;3.30;;;;;;;12.68;100.00;100184.03;6272569;22;20011;-86
2022/10/24 01:47:57;;;;;;;8.88;3.35;;;;;;;12.68;100.00;100176.03;6274632;22;20007;-87
2022/10/24 01:50:24;;;;;;;6.25;3.05;;;;;;;12.66;100.00;100165.44;6273197;22;20368;-87
2022/10/24 01:52:51;;;;;;;7.45;2.90;;;;;;;12.63;100.00;100164.81;6271070;22;20007;-86
2022/10/24 01:55:17;;;;;;;5.15;3.00;;;;;;;12.68;100.00;100163.53;6269532;22;20014;-86
2022/10/24 01:57:42;;;;;;;6.07;3.08;;;;;;;12.69;100.00;100161.69;6271088;22;20023;-85
2022/10/24 02:00:16;;;;;;;8.80;2.78;;;;;;;12.62;100.00;100152.41;6270783;22;20012;-86
2022/10/24 02:02:42;;;;;;;;;;;;;;;12.44;100.00;100159.91;6269996;22;20012;-86
2022/10/24 02:05:29;;;;;;;5.45;2.88;;;;;;;12.63;100.00;100156.81;6270585;22;19914;-86
2022/10/24 02:08:01;;;;;;;6.45;2.85;;;;;;;12.70;100.00;100158.06;6271710;22;20038;-86
2022/10/24 02:10:34;;;;;;;4.43;2.95;;;;;;;12.77;100.00;100159.34;6273756;22;20069;-85
2022/10/24 02:13:07;;;;;;;5.65;2.65;;;;;;;12.75;100.00;100153.28;6272585;22;20279;-86
2022/10/24 02:15:39;;;;;;;7.22;2.80;;;;;;;12.71;100.00;100155.31;6272478;22;20014;-86
2022/10/24 02:18:05;;;;;;;7.97;2.80;;;;;;;12.68;100.00;100160.84;6272368;22;20003;-87
2022/10/24 02:21:06;;;;;;;5.80;2.83;;;;;;;12.60;100.00;100149.84;6270819;22;20003;-86
2022/10/24 02:23:42;;;;;;;6.45;2.90;;;;;;;12.64;100.00;100154.03;6269641;22;20070;-86
2022/10/24 02:26:13;;;;;;;6.18;2.55;;;;;;;12.74;100.00;100148.88;6268674;22;20004;-87
2022/10/24 02:28:44;;;;;;;6.68;2.63;;;;;;;12.88;100.00;100159.44;6270655;22;20008;-87
2022/10/24 02:31:17;;;;;;;7.18;2.40;;;;;;;12.98;100.00;100164.97;6270156;22;20027;-87
2022/10/24 02:33:45;;;;;;;5.22;2.30;;;;;;;13.05;100.00;100162.72;6268288;22;20015;-87
2022/10/24 02:36:15;;;;;;;5.07;2.13;;;;;;;13.06;100.00;100162.59;6267794;22;20004;-87
2022/10/24 02:38:43;;;;;;;7.20;2.50;;;;;;;13.01;100.00;100159.41;6270463;22;20070;-86
2022/10/24 02:41:13;;;;;;;8.57;2.15;;;;;;;13.09;99.63;100164.22;6268373;22;20011;-85
2022/10/24 02:43:41;;;;;;;5.38;2.33;;;;;;;13.03;99.86;100154.81;6269846;22;20015;-86
2022/10/24 02:46:10;;;;;;;7.97;2.13;;;;;;;13.12;98.22;100163.97;6273467;22;20008;-86
2022/10/24 02:48:41;;;;;;;5.75;2.38;;;;;;;13.12;99.02;100162.16;6274159;22;20014;-84
2022/10/24 02:51:08;;;;;;;6.10;2.17;;;;;;;13.06;99.29;100148.41;6273596;22;20078;-86
2022/10/24 02:53:36;;;;;;;6.78;2.20;;;;;;;13.15;98.88;100164.63;6274148;22;20007;-86
2022/10/24 02:56:02;;;;;;;5.28;2.45;;;;;;;13.20;97.54;100159.78;6274244;22;19999;-85
2022/10/24 02:58:27;;;;;;;5.45;2.22;;;;;;;13.28;97.16;100167.28;6282191;22;20039;-85
2022/10/24 03:00:52;;;;;;;5.15;2.20;;;;;;;13.21;97.56;100155.31;6290248;22;20194;-85
2022/10/24 03:03:18;;;;;;;8.57;2.53;;;;;;;13.26;97.60;100163.03;6295648;22;19996;-86
2022/10/24 03:05:43;;;;;;;4.00;2.30;;;;;;;13.20;97.99;100161.59;6299164;22;19995;-86
2022/10/24 03:08:08;;;;;;;7.43;2.20;;;;;;;13.16;97.20;100160.13;6289830;22;20014;-86
2022/10/24 03:10:33;;;;;;;8.88;2.35;;;;;;;13.15;97.03;100171.78;6275111;22;20014;-84
2022/10/24 03:12:59;;;;;;;6.05;2.20;;;;;;;13.18;97.22;100150.19;6273477;22;20010;-85
2022/10/24 03:15:25;;;;;;;7.50;2.45;;;;;;;13.14;97.42;100154.03;6277444;22;20007;-85
2022/10/24 03:17:50;;;;;;;7.05;2.47;;;;;;;13.21;97.20;100160.66;6280909;22;20030;-84
2022/10/24 03:20:16;;;;;;;6.85;2.47;;;;;;;13.23;96.14;100156.06;6272709;22;20357;-85
2022/10/24 03:22:41;;;;;;;5.00;2.15;;;;;;;13.30;95.80;100161.84;6272890;22;20007;-86
2022/10/24 03:25:07;;;;;;;5.00;2.40;;;;;;;13.26;96.35;100169.22;6274404;22;20544;-84
2022/10/24 03:27:33;;;;;;;8.57;2.47;;;;;;;13.27;96.46;100165.56;6273779;22;20144;-85
2022/10/24 03:29:59;;;;;;;4.82;2.58;;;;;;;13.30;95.47;100164.50;6274715;22;20004;-85
2022/10/24 03:32:25;;;;;;;5.13;2.58;;;;;;;13.23;96.05;100163.25;6276217;22;20058;-86
2022/10/24 03:34:50;;;;;;;10.20;2.20;;;;;;;13.21;95.97;100171.34;6278772;22;20007;-86
2022/10/24 03:37:17;;;;;;;6.60;2.28;;;;;;;13.21;95.81;100160.66;6273732;22;20008;-85
2022/10/24 03:39:43;;;;;;;9.93;2.80;;;;;;;13.24;95.69;100160.44;6272633;22;20004;-86
2022/10/24 03:42:08;;;;;;;5.47;2.50;;;;;;;13.19;96.37;100155.41;6270459;22;20025;-85
2022/10/24 03:44:33;;;;;;;5.30;2.08;;;;;;;13.12;97.04;100161.31;6271207;22;20000;-85
2022/10/24 03:46:59;;;;;;;7.35;2.75;;;;;;;13.22;96.03;100159.69;6268846;22;20026;-85
2022/10/24 03:49:24;;;;;;;5.95;2.20;;;;;;;13.20;96.49;100165.13;6268399;22;20057;-87
2022/10/24 03:51:49;;;;;;;6.25;2.40;;;;;;;13.29;95.23;100168.13;6270609;22;19999;-86
2022/10/24 03:54:15;;;;;;;4.47;2.55;;;;;;;13.27;96.25;100159.38;6270254;22;20378;-86
2022/10/24 03:56:42;;;;;;;4.82;2.20;;;;;;;13.31;94.78;100156.38;6269286;22;20007;-86
2022/10/24 03:59:08;;;;;;;7.65;2.58;;;;;;;13.29;94.81;100155.63;6269275;22;20019;-85
2022/10/24 04:01:33;;;;;;;7.88;2.20;;;;;;;13.34;94.71;100152.63;6270428;22;20010;-85
2022/10/24 04:03:58;;;;;;;6.47;2.22;;;;;;;13.36;95.15;100162.22;6272472;22;20406;-85
2022/10/24 04:06:23;;;;;;;7.32;2.22;;;;;;;13.25;94.99;100147.94;6270861;22;20012;-86
2022/10/24 04:08:49;;;;;;;6.75;2.42;;;;;;;13.30;94.35;100162.69;6272916;22;20369;-86
2022/10/24 04:11:14;;;;;;;5.72;2.00;;;;;;;13.32;93.90;100158.06;6270244;22;20007;-86
2022/10/24 04:13:39;;;;;;;6.28;2.20;;;;;;;13.34;94.24;100164.19;6273232;22;20414;-86
2022/10/24 04:16:06;;;;;;;7.20;2.38;;;;;;;13.30;93.91;100141.31;6273945;22;19988;-86
2022/10/24 04:18:31;;;;;;;7.88;2.33;;;;;;;13.33;93.12;100141.06;6276067;22;20083;-87
2022/10/24 04:20:57;;;;;;;4.13;2.08;;;;;;;13.42;93.80;100158.28;6273497;22;20023;-86
2022/10/24 04:23:23;;;;;;;6.72;1.92;;;;;;;13.44;93.17;100153.66;6273199;22;20011;-85
2022/10/24 04:25:49;;;;;;;5.00;1.90;;;;;;;13.53;91.99;100139.59;6274552;22;20007;-86
2022/10/24 04:28:14;;;;;;;6.88;2.00;;;;;;;13.54;91.52;100146.66;6273084;22;20479;-86
2022/10/24 04:30:39;;;;;;;4.05;2.13;;;;;;;13.64;90.82;100155.69;6274064;22;20425;-86
2022/10/24 04:33:04;;;;;;;5.43;2.08;;;;;;;13.68;90.29;100143.81;6274007;22;19999;-86
2022/10/24 04:35:30;;;;;;;9.07;2.72;;;;;;;13.67;90.50;100141.25;6273045;22;20038;-85
2022/10/24 04:37:55;;;;;;;5.53;2.00;;;;;;;13.62;91.36;100148.75;6272239;22;20004;-86
2022/10/24 04:40:20;;;;;;;5.95;1.80;;;;;;;13.56;90.83;100151.91;6270404;22;20003;-84
2022/10/24 04:42:46;;;;;;;4.80;2.00;;;;;;;13.54;91.21;100149.31;6273092;22;20083;-85
2022/10/24 04:45:11;;;;;;;6.03;2.20;;;;;;;13.53;91.27;100158.31;6274664;22;20096;-86
2022/10/24 04:47:36;;;;;;;4.32;1.85;;;;;;;13.54;91.42;100162.69;6273717;22;20031;-85
2022/10/24 04:50:03;;;;;;;7.13;2.05;;;;;;;13.58;92.03;100155.28;6272668;22;20025;-85
2022/10/24 04:52:28;;;;;;;6.30;2.00;;;;;;;13.61;91.04;100161.28;6273311;22;19996;-86
2022/10/24 04:54:53;;;;;;;6.40;2.13;;;;;;;13.78;90.37;100161.84;6272786;22;20088;-85
2022/10/24 04:57:19;;;;;;;5.60;2.53;;;;;;;13.89;90.02;100156.53;6272979;22;20003;-86
2022/10/24 04:59:44;;;;;;;6.95;2.40;;;;;;;13.93;90.20;100160.69;6273850;22;20023;-86
2022/10/24 05:02:09;;;;;;;9.60;2.55;;;;;;;13.97;89.08;100151.47;6272356;22;20074;-86
2022/10/24 05:04:35;;;;;;;7.45;2.30;;;;;;;14.07;89.36;100162.31;6273427;22;20008;-84
2022/10/24 05:07:00;;;;;;;7.38;2.20;;;;;;;14.03;89.36;100142.09;6272588;22;20004;-85
2022/10/24 05:09:25;;;;;;;6.57;2.13;;;;;;;14.04;89.57;100149.16;6272476;22;20092;-85
2022/10/24 05:11:56;;;;;;;7.03;2.55;;;;;;;13.95;90.16;100161.41;6271274;22;20003;-86
2022/10/24 05:14:22;;;;;;;8.20;2.05;;;;;;;13.84;90.54;100143.53;6272742;22;20030;-85
2022/10/24 05:16:48;;;;;;;6.82;2.45;;;;;;;13.81;91.42;100159.78;6270355;22;20492;-84
2022/10/24 05:19:14;;;;;;;8.07;2.92;;;;;;;13.76;91.15;100167.31;6270862;22;20425;-86
2022/10/24 05:21:39;;;;;;;6.35;1.90;;;;;;;13.81;90.39;100169.63;6271937;22;20010;-85
2022/10/24 05:24:05;;;;;;;6.53;1.92;;;;;;;13.81;90.25;100175.00;6271927;22;20096;-84
2022/10/24 05:26:30;;;;;;;9.07;2.33;;;;;;;13.89;89.31;100172.59;6273660;22;20007;-84
2022/10/24 05:28:55;;;;;;;7.03;2.05;;;;;;;13.98;89.66;100173.72;6272311;22;20003;-83
2022/10/24 05:31:21;;;;;;;7.18;2.20;;;;;;;14.01;89.14;100187.72;6269020;22;20031;-85
2022/10/24 05:33:46;;;;;;;8.48;2.10;;;;;;;14.10;88.79;100181.66;6272133;22;20024;-84
2022/10/24 05:36:11;;;;;;;6.85;2.45;;;;;;;14.16;88.33;100173.16;6271947;22;20437;-86
2022/10/24 05:38:37;;;;;;;5.47;1.88;;;;;;;14.23;87.53;100180.72;6271913;22;19999;-83
2022/10/24 05:41:02;;;;;;;7.90;2.08;;;;;;;14.20;88.39;100181.81;6271533;22;20015;-83
2022/10/24 05:43:27;;;;;;;7.85;2.30;;;;;;;14.20;88.33;100187.16;6274081;22;20055;-85
2022/10/24 05:45:53;;;;;;;8.27;2.42;;;;;;;14.18;88.24;100173.91;6281828;22;20031;-84
2022/10/24 05:48:18;;;;;;;9.77;2.10;;;;;;;14.25;87.77;100184.13;6309692;22;20067;-83
2022/10/24 05:50:43;;;;;;;9.00;2.40;;;;;;;14.19;87.78;100174.75;6285521;22;20402;-85
2022/10/24 05:53:09;;;;;;;9.18;2.83;;;;;;;14.27;87.75;100196.44;6284356;22;19996;-84
2022/10/24 05:55:35;;;;;;;8.85;2.38;;;;;;;14.35;86.45;100196.69;6276434;22;20038;-84
2022/10/24 05:58:01;;;;;;;9.70;2.30;;;;;;;14.38;86.71;100182.22;6274641;22;20315;-84
2022/10/24 06:00:26;;;;;;;6.75;2.10;;;;;;;14.31;87.21;100184.53;6270716;22;20027;-86
2022/10/24 06:02:51;;;;;;;8.00;2.13;;;;;;;14.35;87.14;100193.19;6270786;22;20035;-84
2022/10/24 06:05:17;;;;;;;8.68;2.60;;;;;;;14.30;86.58;100198.88;6273987;22;20016;-83
2022/10/24 06:07:42;;;;;;;7.70;2.63;;;;;;;14.26;87.01;100201.91;6273542;22;20061;-85
2022/10/24 06:10:09;;;;;;;12.27;2.95;;;;;;;14.19;87.02;100202.38;6271926;22;20015;-85
2022/10/24 06:12:35;;;;;;;10.88;3.13;;;;;;;14.18;87.48;100189.13;6274447;22;20027;-84
2022/10/24 06:15:01;;;;;;;8.18;2.40;;;;;;;14.18;nan;100200.66;6274652;22;20011;-86
2022/10/24 06:17:27;;;;;;;10.20;2.83;;;;;;;14.15;87.50;100210.75;6274998;22;20010;-85
2022/10/24 06:19:52;;;;;;;8.80;2.00;;;;;;;14.19;86.80;100197.00;6274002;22;20035;-85
2022/10/24 06:22:18;;;;;;;9.80;2.22;;;;;;;14.17;86.52;100214.16;6273265;22;20035;-84
2022/10/24 06:24:44;;;;;;;7.75;2.25;;;;;;;14.15;86.84;100213.44;6271249;22;20380;-85
2022/10/24 06:27:09;;;;;;;10.65;2.70;;;;;;;14.04;87.50;100202.66;6267399;22;20014;-85
2022/10/24 06:29:35;;;;;;;10.48;2.60;;;;;;;14.01;87.76;100197.56;6270486;22;20004;-83
2022/10/24 06:32:00;;;;;;;7.97;2.50;;;;;;;14.02;87.98;100210.81;6269961;22;20000;-84
2022/10/24 06:34:26;;;;;;;10.93;2.45;;;;;;;13.92;88.04;100202.66;6271162;22;20418;-83
2022/10/24 06:36:51;;;;;;;9.82;2.42;;;;;;;13.92;88.64;100209.81;6269892;22;20418;-84
2022/10/24 06:39:17;;;;;;;11.45;2.35;;;;;;;13.89;88.76;100215.41;6271631;22;20081;-84
2022/10/24 06:41:42;;;;;;;7.78;2.42;;;;;;;13.88;88.83;100217.22;6272068;22;20061;-85
2022/10/24 06:44:08;;;;;;;7.32;2.15;;;;;;;13.95;88.12;100228.28;6272149;22;20571;-84
2022/10/24 06:46:33;;;;;;;10.60;2.72;;;;;;;13.95;88.69;100231.81;6271241;22;20067;-85
2022/10/24 06:48:58;;;;;;;8.35;2.85;;;;;;;13.94;88.51;100239.97;6271366;22;20027;-86
2022/10/24 06:51:24;;;;;;;13.15;2.80;;;;;;;13.95;88.01;100239.84;6269269;22;20014;-86
2022/10/24 06:53:49;;;;;;;11.27;2.80;;;;;;;14.01;88.75;100256.44;6269099;22;20129;-84
2022/10/24 06:56:16;;;;;;;9.52;2.90;;;;;;;14.05;88.60;100245.38;6269860;22;20015;-83
2022/10/24 06:58:42;;;;;;;8.82;2.30;;;;;;;14.10;88.29;100259.28;6269106;22;20011;-82
2022/10/24 07:01:13;;;;;;;10.02;2.65;;;;;;;14.09;89.26;100256.72;6268509;22;20141;-83
2022/10/24 07:03:39;;;;;;;8.80;2.42;;;;;;;14.11;88.77;100252.09;6270776;22;20007;-84
2022/10/24 07:06:07;;;;;;;8.98;2.53;;;;;;;14.12;89.36;100251.13;6272085;22;20026;-85
2022/10/24 07:08:32;;;;;;;8.55;2.45;;;;;;;14.18;88.79;100248.00;6273027;22;20116;-84
2022/10/24 07:10:58;;;;;;;10.48;2.58;;;;;;;14.26;88.72;100252.78;6271944;22;20007;-85
2022/10/24 07:13:23;;;;;;;10.68;2.58;;;;;;;14.34;87.63;100261.94;6269160;22;20007;-85
2022/10/24 07:15:53;;;;;;;8.70;2.63;;;;;;;14.31;88.12;100248.78;6272199;22;20008;-86
2022/10/24 07:18:18;;;;;;;8.07;2.80;;;;;;;14.31;88.14;100262.16;6272431;22;20050;-86
2022/10/24 07:20:43;;;;;;;12.20;2.88;;;;;;;14.27;87.77;100260.69;6270504;22;20077;-84
2022/10/24 07:23:09;;;;;;;6.07;2.53;;;;;;;14.24;88.12;100262.72;6270773;22;20031;-85
2022/10/24 07:25:34;;;;;;;11.70;2.95;;;;;;;14.18;87.54;100267.59;6272828;22;20012;-84
2022/10/24 07:27:59;;;;;;;10.38;2.63;;;;;;;14.26;87.43;100274.19;6271536;22;20073;-86
2022/10/24 07:30:24;;;;;;;9.73;2.35;;;;;;;14.36;87.19;100268.00;6269846;22;20006;-85
2022/10/24 07:32:50;;;;;;;9.45;2.20;;;;;;;14.46;86.11;100278.88;6273605;22;20038;-84
2022/10/24 07:35:15;;;;;;;9.40;2.70;;;;;;;14.54;86.40;100265.78;6271346;22;20007;-85
2022/10/24 07:37:40;;;;;;;9.73;2.30;;;;;;;14.75;84.96;100286.53;6273975;22;20000;-84
2022/10/24 07:40:06;;;;;;;11.88;2.60;;;;;;;14.83;84.48;100297.50;6269634;22;20003;-84
2022/10/24 07:42:32;;;;;;;10.13;2.60;;;;;;;14.88;83.96;100304.25;6272298;22;20054;-86
2022/10/24 07:44:57;;;;;;;10.48;2.85;;;;;;;14.88;84.14;100290.84;6271881;22;20007;-84
2022/10/24 07:47:22;;;;;;;10.25;2.40;;;;;;;14.99;83.83;100308.75;6269999;22;20008;-85
2022/10/24 07:49:48;;;;;;;10.38;2.53;;;;;;;15.00;84.21;100315.81;6269680;22;20420;-85
2022/10/24 07:52:13;;;;;;;6.07;2.28;;;;;;;14.93;84.59;100314.59;6272043;22;20045;-86
2022/10/24 07:54:38;;;;;;;7.68;2.40;;;;;;;14.92;84.32;100323.59;6274038;22;20091;-85
2022/10/24 07:57:04;;;;;;;8.95;2.10;;;;;;;14.84;85.19;100329.56;6276180;22;20053;-87
2022/10/24 07:59:29;;;;;;;7.38;2.20;;;;;;;14.75;85.99;100321.34;6274864;22;20493;-86
2022/10/24 08:01:54;;;;;;;9.65;2.20;;;;;;;14.83;85.78;100335.88;6274646;22;20012;-86
2022/10/24 08:04:20;;;;;;;8.68;2.53;;;;;;;14.96;85.51;100338.47;6272613;22;20004;-84
2022/10/24 08:06:45;;;;;;;7.15;2.15;;;;;;;15.02;85.85;100331.78;6274471;22;20011;-84
2022/10/24 08:09:11;;;;;;;8.40;2.25;;;;;;;15.06;85.89;100322.53;6273897;22;20000;-86
2022/10/24 08:11:38;;;;;;;9.13;2.10;;;;;;;15.17;85.41;100344.88;6274481;22;20011;-85
2022/10/24 08:14:03;;;;;;;11.65;2.92;;;;;;;15.08;85.29;100340.19;6274186;22;20000;-86
2022/10/24 08:16:28;;;;;;;11.18;2.33;;;;;;;15.08;85.72;100350.91;6273584;22;20046;-85
2022/10/24 08:18:56;;;;;;;8.35;2.60;;;;;;;15.09;86.09;100341.91;6280032;22;20038;-84
2022/10/24 08:21:23;;;;;;;11.85;2.97;;;;;;;15.19;85.34;100358.97;6278280;22;20007;-86
2022/10/24 08:23:51;;;;;;;13.65;2.60;;;;;;;15.24;85.36;100349.72;6274388;22;20060;-84
2022/10/24 08:26:20;;;;;;;8.32;2.20;;;;;;;15.30;83.14;100362.63;6273262;22;20004;-83
2022/10/24 08:28:46;;;;;;;9.35;2.47;;;;;;;15.28;81.89;100360.09;6273476;22;20014;-86
2022/10/24 08:31:17;;;;;;;9.80;2.47;;;;;;;15.28;81.59;100367.28;6271977;22;20340;-85
2022/10/24 08:33:43;;;;;;;9.77;2.45;;;;;;;15.26;82.01;100355.81;6272777;22;19999;-85
2022/10/24 08:36:19;;;;;;;10.23;2.20;;;;;;;15.34;81.91;100354.28;6275917;22;20065;-85
2022/10/24 08:38:44;;;;;;;7.95;2.30;;;;;;;15.33;82.07;100367.78;6273149;22;20064;-84
2022/10/24 08:41:34;;;;;;;11.27;2.42;;;;;;;15.38;82.34;100360.22;6283324;22;20326;-86
2022/10/24 08:44:02;;;;;;;7.70;2.17;;;;;;;15.34;81.89;100377.53;6297861;22;20010;-86
2022/10/24 08:46:38;;;;;;;10.10;2.47;;;;;;;15.30;81.80;100387.66;6299391;22;19988;-84
2022/10/24 08:49:28;;;;;;;10.13;2.53;;;;;;;15.19;83.19;100384.94;6293940;22;20004;-84
2022/10/24 08:51:58;;;;;;;10.43;2.55;;;;;;;15.20;81.31;100397.38;6285712;22;20014;-86
2022/10/24 08:54:30;;;;;;;11.10;2.85;;;;;;;15.26;81.50;100396.03;6278684;22;20010;-85
2022/10/24 08:56:58;;;;;;;10.48;3.00;;;;;;;15.28;81.67;100386.91;6280447;22;20014;-88
2022/10/24 08:59:27;;;;;;;12.20;3.03;;;;;;;15.21;81.71;100396.38;6277441;22;20068;-85
2022/10/24 09:02:21;;;;;;;10.82;2.67;;;;;;;15.18;81.99;100408.22;6274788;22;20086;-85
2022/10/24 09:04:55;;;;;;;11.57;2.72;;;;;;;15.17;81.90;100401.16;6276816;22;20007;-85
2022/10/24 09:07:22;;;;;;;10.13;2.50;;;;;;;15.11;81.47;100390.88;6275551;22;20075;-85
2022/10/24 09:09:50;;;;;;;11.57;2.80;;;;;;;15.01;81.59;100387.22;6272560;22;20425;-86
2022/10/24 09:12:19;;;;;;;8.25;2.20;;;;;;;14.96;82.04;100389.38;6281853;22;20027;-86
2022/10/24 09:14:51;;;;;;;11.43;2.63;;;;;;;14.96;82.65;100397.41;6281882;22;20014;-85
2022/10/24 09:17:23;;;;;;;9.15;2.40;;;;;;;14.94;83.53;100391.34;6280630;22;20004;-85
2022/10/24 09:20:17;;;;;;;9.73;2.35;;;;;;;14.97;82.93;100395.63;6279254;22;20004;-85
2022/10/24 09:22:43;;;;;;;8.75;2.75;;;;;;;15.12;83.03;100397.94;6273462;22;20011;-86
2022/10/24 09:25:15;;;;;;;9.55;2.75;;;;;;;15.31;83.02;100409.97;6269937;22;20008;-87
2022/10/24 09:27:41;;;;;;;10.82;2.60;;;;;;;15.47;81.98;100398.88;6273930;22;20054;-85
2022/10/24 09:30:15;;;;;;;10.10;2.83;;;;;;;15.60;80.54;100402.31;6272007;22;20082;-85
2022/10/24 09:32:42;;;;;;;10.02;2.60;;;;;;;15.61;80.61;100404.88;6273566;22;19996;-85
2022/10/24 09:35:25;;;;;;;10.43;2.58;;;;;;;15.76;79.29;100408.22;6272236;22;20034;-85
2022/10/24 09:37:54;;;;;;;8.25;2.47;;;;;;;16.00;78.43;100412.56;6271196;22;20008;-84
2022/10/24 09:40:49;;;;;;;10.23;2.58;;;;;;;16.10;79.62;100413.56;6270495;22;20072;-86
2022/10/24 09:43:21;;;;;;;12.40;2.85;;;;;;;16.17;78.61;100420.97;6271593;22;20090;-85
2022/10/24 09:45:51;;;;;;;11.15;2.92;;;;;;;16.29;76.70;100420.97;6273935;22;20008;-84
2022/10/24 09:48:31;;;;;;;10.95;3.05;;;;;;;16.51;75.87;100417.38;6268635;22;20008;-85
2022/10/24 09:50:58;;;;;;;7.20;2.53;;;;;;;16.61;74.81;100434.44;6271257;22;20372;-85
2022/10/24 09:53:26;;;;;;;11.63;2.60;;;;;;;16.63;75.05;100427.94;6271676;22;20045;-85
2022/10/24 09:55:55;;;;;;;10.65;2.85;;;;;;;16.79;74.15;100432.09;6272204;22;20023;-83
2022/10/24 09:58:31;;;;;;;13.82;3.45;;;;;;;17.07;73.20;100436.00;6268530;22;20015;-82
2022/10/24 10:01:17;;;;;;;12.77;2.78;;;;;;;17.13;73.58;100446.25;6225631;22;1059279;-84
2022/10/24 10:04:00;;;;;;;8.70;2.28;;;;;;;17.01;74.02;100432.00;6273668;22;20410;-84
2022/10/24 10:06:25;;;;;;;10.27;2.67;;;;;;;17.16;72.01;100443.28;6297021;22;20011;-85
2022/10/24 10:08:54;;;;;;;10.85;2.70;;;;;;;17.26;70.65;100452.28;6271360;22;20073;-82
2022/10/24 10:11:26;;;;;;;9.32;2.50;;;;;;;17.27;72.00;100448.63;6271553;22;20004;-85
2022/10/24 10:13:53;;;;;;;10.70;2.58;;;;;;;17.41;72.24;100445.59;6272479;22;20003;-85
2022/10/24 10:16:31;;;;;;;12.15;2.85;;;;;;;17.40;72.50;100449.28;6272515;22;20008;-85
2022/10/24 10:19:13;;;;;;;9.55;2.97;;;;;;;17.34;71.91;100460.53;6271324;22;20006;-85
2022/10/24 10:22:23;;;;;;;12.18;2.65;;;;;;;17.14;72.89;100461.41;6273614;22;20007;-86
2022/10/24 10:24:48;;;;;;;11.18;2.75;;;;;;;16.68;72.84;100473.28;6262857;22;20366;-81
2022/10/24 10:27:33;;;;;;;10.15;2.50;;;;;;;16.49;74.50;100465.84;6272235;22;20049;-84
2022/10/24 10:30:11;;;;;;;9.98;2.90;;;;;;;16.33;74.83;100462.69;6270799;22;20104;-85
2022/10/24 10:32:48;;;;;;;8.93;2.78;;;;;;;16.17;75.28;100480.03;6271684;22;19999;-84
2022/10/24 10:35:21;;;;;;;10.75;2.80;;;;;;;15.93;79.83;100477.50;6273730;22;20129;-85
2022/10/24 10:38:03;;;;;;;12.13;3.25;;;;;;;15.65;82.23;100489.53;6270837;22;20034;-86
2022/10/24 10:40:39;;;;;;;10.68;2.88;;;;;;;15.54;81.13;100489.47;6272572;22;20003;-84
2022/10/24 10:43:37;;;;;;;13.05;3.22;;;;;;;15.55;82.46;100499.25;6270455;22;20043;-82
2022/10/24 10:46:30;;;;;;;12.60;3.20;;;;;;;15.58;81.56;100503.50;6268411;22;20004;-84
2022/10/24 10:49:15;;;;;;;10.90;3.15;;;;;;;15.52;81.67;100499.47;6272014;22;20033;-85
2022/10/24 10:51:49;;;;;;;8.93;2.30;;;;;;;15.55;80.71;100499.25;6272104;22;20071;-85
2022/10/24 10:54:29;;;;;;;;;;;;;;;15.64;81.22;100511.09;6271312;22;20010;-85
2022/10/24 10:57:11;;;;;;;8.23;2.45;;;;;;;15.68;77.71;100485.78;6271249;22;19907;-85
2022/10/24 10:59:56;;;;;;;9.77;2.33;;;;;;;15.88;76.78;100506.53;6269757;22;20022;-84
2022/10/24 11:02:51;;;;;;;10.77;2.60;;;;;;;16.30;73.85;100500.53;6270546;22;20012;-84
2022/10/24 11:05:32;;;;;;;11.25;2.42;;;;;;;16.78;70.24;100495.75;6270280;22;20010;-84
2022/10/24 11:08:17;;;;;;;8.48;2.08;;;;;;;17.13;69.43;100500.88;6268557;22;20388;-85
2022/10/24 11:10:50;;;;;;;7.10;2.03;;;;;;;17.14;67.57;100499.06;6271895;22;20011;-83
2022/10/24 11:13:35;;;;;;;8.63;2.10;;;;;;;17.27;67.92;100513.19;6270885;22;20000;-86
2022/10/24 11:16:06;;;;;;;8.25;2.03;;;;;;;17.62;65.63;100496.72;6270466;22;20034;-86
2022/10/24 11:18:35;;;;;;;7.53;1.83;;;;;;;17.57;65.88;100498.09;6268542;22;20082;-85
2022/10/24 11:21:05;;;;;;;11.25;2.80;;;;;;;17.30;66.63;100503.97;6270249;22;20487;-85
2022/10/24 11:23:38;;;;;;;9.25;2.25;;;;;;;17.24;66.19;100499.97;6270141;22;20012;-86
2022/10/24 11:26:09;;;;;;;7.97;2.15;;;;;;;17.15;67.17;100519.59;6271225;22;20013;-85
2022/10/24 11:28:48;;;;;;;10.20;2.35;;;;;;;16.90;68.60;100513.56;6271132;22;20008;-85
2022/10/24 11:31:22;;;;;;;7.47;2.45;;;;;;;16.72;68.34;100515.03;6271450;22;20061;-84
2022/10/24 11:33:56;;;;;;;12.13;2.35;;;;;;;16.82;68.90;100507.09;6274016;22;20062;-84